Speegleville, Texas
Current Conditions -  °F | °C
As of 9:51 AM on Sunday 21 Dec 2014 (Local Time) from KACT Reporting Station
Overcast Overcast  
Wind Chill:   Ceiling: 1900
Heat Index:   Visibility: 10mi
Dew Point:   Wind: 12mph
Humidity: 83%   Direction: 160°SSE
Pressure: 30.11"   Gusts: NA
Location:  31.5356°N, 97.1921°W
Report Text: KACT 211551Z 16010KT 10SM OVC019 09/07 A3011 RMK AO2 SLP196 T00940067
Loading
Personal Weather Stations






























Interactive Weather Map New forecast layout! Learn more

10-Day Weather Forecast

Advertisements
Track Severe Weather on mobile